Time;durP1;ratioP1;P1;durP2;ratioP2;P2;SDS_P1;SDS_P2;PMS_P1;PMS_P2;Temp;Humidity;BMP_temperature;BMP_pressure;BME280_temperature;BME280_humidity;BME280_pressure;Samples;Min_cycle;Max_cycle;Signal;HPM_P1;HPM_P2
2023/06/21 00:00:32;;;;;;;10.40;8.50;;;;;;;25.77;55.22;100342.81;108306;1284;21979;-68
2023/06/21 00:02:58;;;;;;;12.10;8.90;;;;;;;25.82;55.24;100343.98;108233;1277;21991;-63
2023/06/21 00:05:24;;;;;;;12.60;7.90;;;;;;;25.87;55.14;100343.45;108193;1284;21986;-64
2023/06/21 00:07:54;;;;;;;13.70;7.60;;;;;;;25.90;55.00;100345.58;108292;1283;22005;-63
2023/06/21 00:10:23;;;;;;;10.60;8.80;;;;;;;25.93;55.22;100347.11;108255;1274;21979;-69
2023/06/21 00:12:52;;;;;;;10.40;7.90;;;;;;;25.96;54.87;100342.38;108263;1281;21979;-64
2023/06/21 00:15:18;;;;;;;11.50;8.50;;;;;;;26.03;55.06;100341.71;108292;1284;22018;-64
2023/06/21 00:17:43;;;;;;;14.20;7.60;;;;;;;26.07;55.00;100343.18;108259;1274;22003;-64
2023/06/21 00:20:10;;;;;;;14.20;8.20;;;;;;;26.10;54.98;100343.25;108242;1283;22143;-70
2023/06/21 00:22:39;;;;;;;12.60;8.20;;;;;;;26.15;54.71;100341.85;108306;1283;22017;-66
2023/06/21 00:25:07;;;;;;;12.10;8.20;;;;;;;26.19;55.20;100336.86;108353;1283;21985;-63
2023/06/21 00:27:37;;;;;;;12.10;8.30;;;;;;;26.22;54.95;100339.66;108417;1283;23714;-63
2023/06/21 00:30:03;;;;;;;9.00;7.40;;;;;;;26.25;54.74;100339.65;108294;1274;21986;-64
2023/06/21 00:32:29;;;;;;;11.10;7.70;;;;;;;26.29;54.63;100342.21;108267;1274;21972;-64
2023/06/21 00:34:55;;;;;;;8.60;7.30;;;;;;;26.33;54.47;100342.95;108348;1283;21990;-69
2023/06/21 00:37:21;;;;;;;11.50;7.80;;;;;;;26.37;54.48;100340.54;108281;1283;21991;-65
2023/06/21 00:39:46;;;;;;;8.70;7.40;;;;;;;26.41;54.21;100339.51;108314;1280;21975;-65
2023/06/21 00:42:12;;;;;;;11.80;7.20;;;;;;;26.44;54.02;100338.55;108275;1283;21996;-64
2023/06/21 00:44:38;;;;;;;11.10;8.10;;;;;;;26.46;53.86;100340.00;108205;1284;21980;-63
2023/06/21 00:47:04;;;;;;;8.90;6.90;;;;;;;26.48;53.97;100341.64;108245;1277;21987;-64
2023/06/21 00:49:30;;;;;;;8.40;7.40;;;;;;;26.48;53.91;100339.11;108324;1277;22070;-64
2023/06/21 00:51:59;;;;;;;8.50;7.50;;;;;;;26.49;54.02;100338.32;108205;1284;21987;-65
2023/06/21 00:54:32;;;;;;;10.80;7.20;;;;;;;26.50;53.78;100335.70;108256;1284;21987;-63
2023/06/21 00:56:58;;;;;;;9.00;6.90;;;;;;;26.54;53.74;100332.73;108239;1277;21984;-64
2023/06/21 00:59:27;;;;;;;10.00;7.00;;;;;;;26.55;53.52;100328.25;108215;1284;22019;-69
2023/06/21 01:01:55;;;;;;;9.20;7.30;;;;;;;26.54;53.64;100326.34;108279;1284;22037;-69
2023/06/21 01:04:31;;;;;;;8.40;6.90;;;;;;;26.55;53.53;100325.94;108234;1284;22021;-64
2023/06/21 01:06:59;;;;;;;8.30;7.20;;;;;;;26.55;53.28;100323.75;108177;1284;21975;-63
2023/06/21 01:09:50;;;;;;;9.90;7.10;;;;;;;26.60;53.44;100323.05;108300;1284;22020;-69
2023/06/21 01:12:56;;;;;;;9.20;7.20;;;;;;;26.61;53.28;100318.27;108317;1284;21974;-69
2023/06/21 01:15:22;;;;;;;9.50;7.10;;;;;;;26.60;53.52;100315.79;108247;1284;21985;-63
2023/06/21 01:17:53;;;;;;;10.20;7.00;;;;;;;26.56;53.71;100310.91;108421;1274;21983;-69
2023/06/21 01:20:25;;;;;;;14.30;8.00;;;;;;;26.56;53.39;100313.59;108228;1284;21989;-64
2023/06/21 01:22:51;;;;;;;13.10;6.80;;;;;;;26.61;53.65;100311.94;108275;1280;22038;-64
2023/06/21 01:25:45;;;;;;;9.20;7.40;;;;;;;26.63;53.40;100310.95;108314;1283;21986;-68
2023/06/21 01:28:33;;;;;;;9.90;7.20;;;;;;;26.65;53.27;100310.59;108293;1281;22025;-64
2023/06/21 01:30:59;;;;;;;9.70;7.00;;;;;;;26.66;53.63;100312.82;108371;1283;21982;-69
2023/06/21 01:33:28;;;;;;;10.80;6.70;;;;;;;26.64;53.55;100315.67;108280;1283;21981;-68
2023/06/21 01:35:54;;;;;;;10.10;7.20;;;;;;;26.63;53.75;100316.70;108323;1284;21999;-69
2023/06/21 01:38:20;;;;;;;13.10;7.10;;;;;;;26.62;53.48;100315.66;108323;1277;21980;-69
2023/06/21 01:40:46;;;;;;;12.10;7.90;;;;;;;26.61;53.42;100311.29;108298;1284;21987;-64
2023/06/21 01:43:13;;;;;;;11.10;7.10;;;;;;;26.64;53.83;100310.09;108270;1274;21987;-64
2023/06/21 01:45:39;;;;;;;13.50;7.00;;;;;;;26.63;53.68;100312.35;108320;1284;22731;-64
2023/06/21 01:48:04;;;;;;;13.20;7.70;;;;;;;26.62;53.61;100310.79;108263;1284;21986;-64
2023/06/21 01:50:31;;;;;;;9.10;6.80;;;;;;;26.62;53.90;100309.77;108239;1284;21991;-69
2023/06/21 01:52:56;;;;;;;9.00;7.00;;;;;;;26.61;54.47;100316.13;108297;1274;21991;-70
2023/06/21 01:55:22;;;;;;;8.50;7.40;;;;;;;26.59;54.05;100320.05;108262;1277;21984;-65
2023/06/21 01:57:48;;;;;;;8.60;6.80;;;;;;;26.59;53.89;100319.89;108285;1274;21977;-69
2023/06/21 02:00:18;;;;;;;9.40;7.40;;;;;;;26.60;53.74;100321.20;108324;1284;22026;-69
2023/06/21 02:02:47;;;;;;;13.10;7.10;;;;;;;26.62;53.50;100323.39;108031;1284;23740;-64
2023/06/21 02:05:13;;;;;;;10.60;7.40;;;;;;;26.67;53.38;100329.15;108330;1283;22020;-70
2023/06/21 02:07:39;;;;;;;11.80;7.10;;;;;;;26.71;53.25;100328.27;108201;1284;21978;-66
2023/06/21 02:10:06;;;;;;;9.80;7.00;;;;;;;26.75;53.09;100327.41;108225;1283;21974;-69
2023/06/21 02:12:34;;;;;;;16.10;7.00;;;;;;;26.79;53.12;100325.11;108339;1275;21980;-63
2023/06/21 02:15:00;;;;;;;14.60;7.50;;;;;;;26.81;52.96;100322.96;108287;1275;22450;-70
2023/06/21 02:17:28;;;;;;;8.40;6.90;;;;;;;26.84;52.91;100325.75;108149;1283;21982;-64
2023/06/21 02:19:55;;;;;;;11.10;6.80;;;;;;;26.88;52.86;100324.59;108337;1271;21989;-64
2023/06/21 02:22:21;;;;;;;11.50;6.70;;;;;;;26.90;52.75;100326.40;108232;1273;21982;-70
2023/06/21 02:24:46;;;;;;;10.00;6.90;;;;;;;26.92;52.70;100323.75;108351;1283;21983;-63
2023/06/21 02:27:12;;;;;;;9.30;6.70;;;;;;;26.93;52.61;100323.44;108260;1277;21984;-63
2023/06/21 02:29:38;;;;;;;9.90;7.20;;;;;;;26.95;52.50;100322.94;108234;1281;21974;-70
2023/06/21 02:32:04;;;;;;;9.30;6.50;;;;;;;26.95;52.42;100322.96;108208;1283;22864;-69
2023/06/21 02:34:29;;;;;;;11.40;7.40;;;;;;;26.93;52.49;100319.32;108278;1281;22017;-63
2023/06/21 02:36:55;;;;;;;8.40;6.50;;;;;;;26.91;52.43;100316.09;108297;1281;21993;-69
2023/06/21 02:39:21;;;;;;;7.30;6.40;;;;;;;26.88;52.36;100320.27;108326;1283;23826;-69
2023/06/21 02:41:48;;;;;;;7.20;5.90;;;;;;;26.86;52.30;100323.62;108314;1277;21981;-68
2023/06/21 02:44:13;;;;;;;8.60;6.10;;;;;;;26.87;52.31;100323.41;108353;1277;21972;-63
2023/06/21 02:46:39;;;;;;;10.10;6.70;;;;;;;26.87;52.34;100327.00;108226;1283;21986;-70
2023/06/21 02:49:05;;;;;;;8.30;6.50;;;;;;;26.87;52.37;100323.07;108282;1283;21953;-68
2023/06/21 02:51:31;;;;;;;11.20;7.50;;;;;;;26.86;52.34;100324.02;108329;1281;21992;-69
2023/06/21 02:53:56;;;;;;;8.40;6.40;;;;;;;26.85;52.37;100326.98;108356;1283;21988;-63
2023/06/21 02:56:22;;;;;;;10.20;6.60;;;;;;;26.84;52.37;100328.66;108243;1275;21980;-63
2023/06/21 02:58:48;;;;;;;11.90;7.00;;;;;;;26.83;52.47;100332.38;108229;1283;22073;-69
2023/06/21 03:01:15;;;;;;;11.90;7.20;;;;;;;26.81;52.67;100332.34;108146;1280;21978;-69
2023/06/21 03:03:43;;;;;;;10.30;6.70;;;;;;;26.81;52.73;100337.93;108227;1280;21985;-69
2023/06/21 03:06:09;;;;;;;15.40;6.70;;;;;;;26.81;52.68;100337.33;108197;1277;22943;-69
2023/06/21 03:08:36;;;;;;;15.90;7.00;;;;;;;26.84;52.95;100336.94;108219;1277;21987;-63
2023/06/21 03:11:02;;;;;;;9.80;7.10;;;;;;;26.85;53.07;100337.20;108205;1277;21981;-69
2023/06/21 03:13:28;;;;;;;14.30;7.10;;;;;;;26.86;52.95;100334.63;108213;1278;21984;-69
2023/06/21 03:15:54;;;;;;;12.70;6.80;;;;;;;26.89;52.94;100336.23;108292;1283;21974;-62
2023/06/21 03:18:20;;;;;;;11.10;7.60;;;;;;;26.90;53.04;100335.21;108255;1283;23604;-63
2023/06/21 03:20:49;;;;;;;7.60;6.50;;;;;;;26.89;53.13;100336.88;108405;1283;21993;-69
2023/06/21 03:23:15;;;;;;;8.90;7.10;;;;;;;26.88;53.10;100339.50;108408;1271;21988;-69
2023/06/21 03:25:42;;;;;;;9.10;7.00;;;;;;;26.85;53.22;100341.74;108300;1283;23615;-63
2023/06/21 03:28:07;;;;;;;7.80;6.70;;;;;;;26.81;53.27;100340.20;108368;1278;21993;-70
2023/06/21 03:30:33;;;;;;;29.70;7.80;;;;;;;26.80;52.96;100338.30;108342;1277;21989;-64
2023/06/21 03:32:59;;;;;;;21.80;7.40;;;;;;;26.87;52.56;100340.34;108359;1274;21983;-64
2023/06/21 03:35:28;;;;;;;19.90;7.40;;;;;;;26.99;52.67;100345.80;108321;1277;21977;-63
2023/06/21 03:37:55;;;;;;;33.50;8.00;;;;;;;27.11;52.74;100349.50;108720;1278;21928;-70
2023/06/21 03:40:21;;;;;;;15.70;7.50;;;;;;;27.22;52.93;100350.95;108402;1274;21980;-64
2023/06/21 03:42:49;;;;;;;12.80;6.40;;;;;;;27.28;52.99;100351.70;108301;1284;23176;-69
2023/06/21 03:45:15;;;;;;;11.40;6.60;;;;;;;27.30;53.03;100353.40;108254;1277;22021;-70
2023/06/21 03:47:41;;;;;;;9.50;6.20;;;;;;;27.32;52.75;100348.70;108199;1284;22170;-69
2023/06/21 03:50:08;;;;;;;10.00;6.90;;;;;;;27.35;52.72;100350.98;108279;1284;21992;-64
2023/06/21 03:52:34;;;;;;;9.80;5.90;;;;;;;27.37;52.85;100355.52;108269;1274;21988;-63
2023/06/21 03:54:59;;;;;;;8.70;5.60;;;;;;;27.36;52.80;100353.81;108240;1284;23247;-63
2023/06/21 03:57:25;;;;;;;7.20;5.50;;;;;;;27.34;52.73;100355.19;108291;1284;21976;-68
2023/06/21 03:59:51;;;;;;;6.70;5.40;;;;;;;27.31;52.50;100363.15;108300;1277;22110;-64
2023/06/21 04:02:17;;;;;;;7.20;5.50;;;;;;;27.27;52.55;100364.02;108289;1278;21984;-67
2023/06/21 04:04:43;;;;;;;9.40;6.10;;;;;;;27.25;53.10;100367.26;108340;1283;21974;-66
2023/06/21 04:07:08;;;;;;;24.10;7.80;;;;;;;27.21;54.47;100373.15;108212;1283;21986;-67
2023/06/21 04:09:34;;;;;;;26.70;10.50;;;;;;;27.08;56.70;100390.80;108303;1274;21982;-70
2023/06/21 04:12:02;;;;;;;16.60;7.80;;;;;;;26.86;56.37;100400.53;108226;1283;22000;-66
2023/06/21 04:14:27;;;;;;;14.00;7.60;;;;;;;26.69;56.38;100397.20;108268;1283;21992;-66
2023/06/21 04:16:53;;;;;;;17.20;7.40;;;;;;;26.60;56.69;100393.39;108352;1283;21984;-67
2023/06/21 04:19:19;;;;;;;13.60;7.80;;;;;;;26.53;56.86;100391.38;108343;1283;21982;-66
2023/06/21 04:21:44;;;;;;;12.20;7.70;;;;;;;26.49;57.15;100388.69;108330;1281;21987;-70
2023/06/21 04:24:10;;;;;;;11.80;6.70;;;;;;;26.44;57.54;100390.64;108390;1274;21989;-72
2023/06/21 04:26:36;;;;;;;9.50;7.30;;;;;;;26.39;57.78;100399.13;108318;1283;21984;-66
2023/06/21 04:29:02;;;;;;;11.00;7.40;;;;;;;26.36;57.93;100401.58;108370;1284;22098;-70
2023/06/21 04:31:28;;;;;;;13.10;7.20;;;;;;;26.31;58.36;100399.20;108286;1284;23583;-67
2023/06/21 04:33:57;;;;;;;10.50;7.30;;;;;;;26.26;58.57;100396.02;108302;1283;21988;-70
2023/06/21 04:36:24;;;;;;;10.80;7.60;;;;;;;26.23;58.43;100393.94;108504;1277;21970;-70
2023/06/21 04:38:50;;;;;;;10.40;7.50;;;;;;;26.21;58.81;100397.67;108315;1278;22449;-65
2023/06/21 04:41:17;;;;;;;11.10;7.60;;;;;;;26.18;59.35;100401.02;108100;1280;21988;-66
2023/06/21 04:43:43;;;;;;;12.70;7.20;;;;;;;26.12;59.56;100404.28;108329;1283;23040;-66
2023/06/21 04:46:08;;;;;;;11.70;7.70;;;;;;;26.07;59.60;100405.36;108430;1274;21990;-65
2023/06/21 04:48:34;;;;;;;10.50;7.00;;;;;;;26.05;59.88;100415.10;108359;1283;24304;-71
2023/06/21 04:51:00;;;;;;;9.10;7.40;;;;;;;26.05;60.42;100413.42;108403;1282;23641;-70
2023/06/21 04:53:29;;;;;;;11.80;7.80;;;;;;;26.08;60.31;100414.14;108351;1283;21982;-65
2023/06/21 04:55:58;;;;;;;11.00;7.60;;;;;;;26.10;60.49;100420.94;108350;1278;23157;-70
2023/06/21 04:58:27;;;;;;;9.40;7.30;;;;;;;26.12;60.45;100420.66;108360;1281;21989;-68
2023/06/21 05:00:52;;;;;;;9.10;7.60;;;;;;;26.14;61.19;100419.08;108249;1283;21983;-69
2023/06/21 07:43:28;;;;;;;9.70;8.40;;;;;;;29.37;88.83;100491.84;107974;1281;549912;-73
2023/06/21 07:46:00;;;;;;;10.00;8.20;;;;;;;32.35;74.35;100485.94;108114;1284;22023;-71
2023/06/21 07:48:27;;;;;;;13.20;9.10;;;;;;;33.00;71.10;100487.92;108094;1284;21982;-72
2023/06/21 07:50:53;;;;;;;9.60;8.00;;;;;;;33.57;70.17;100487.90;108095;1281;21994;-61
2023/06/21 07:53:18;;;;;;;10.80;7.80;;;;;;;34.07;68.33;100484.50;108207;1283;21983;-69
2023/06/21 07:55:44;;;;;;;9.30;8.40;;;;;;;34.49;66.03;100487.67;108235;1278;168341;-62
2023/06/21 07:58:10;;;;;;;11.20;8.10;;;;;;;34.91;65.10;100487.55;108446;1271;21983;-72
2023/06/21 08:00:36;;;;;;;16.40;12.20;;;;;;;35.27;63.56;100489.88;108375;1281;22001;-72
2023/06/21 08:03:02;;;;;;;14.90;12.30;;;;;;;35.42;59.75;100487.84;108449;1281;21982;-72
2023/06/21 08:05:28;;;;;;;12.40;10.20;;;;;;;35.54;59.55;100484.55;108536;1275;22035;-74
2023/06/21 08:07:56;;;;;;;9.60;8.00;;;;;;;35.70;56.78;100483.00;108455;1277;22025;-62
2023/06/21 08:10:21;;;;;;;12.50;7.50;;;;;;;35.83;56.40;100479.80;108457;1277;21982;-63
2023/06/21 08:12:47;;;;;;;10.50;8.20;;;;;;;36.03;56.03;100477.58;108438;1281;21997;-73
2023/06/21 08:15:13;;;;;;;10.50;9.30;;;;;;;36.16;54.83;100472.84;108432;1275;21985;-62
2023/06/21 08:17:39;;;;;;;9.40;8.40;;;;;;;36.34;52.70;100471.98;108437;1268;21971;-62
2023/06/21 08:20:05;;;;;;;9.90;7.50;;;;;;;36.45;53.04;100471.82;108347;1282;21980;-72
2023/06/21 08:22:31;;;;;;;8.20;7.00;;;;;;;36.54;51.15;100467.98;108296;1281;22037;-73
2023/06/21 08:24:57;;;;;;;16.70;12.50;;;;;;;36.62;50.29;100469.37;108364;1277;21968;-62
2023/06/21 08:27:22;;;;;;;9.30;8.20;;;;;;;36.65;49.63;100469.98;108385;1276;21972;-68
2023/06/21 08:29:48;;;;;;;8.90;7.40;;;;;;;36.69;48.64;100469.11;108510;1281;21997;-68
2023/06/21 08:32:13;;;;;;;8.90;7.00;;;;;;;36.75;47.88;100469.83;108398;1277;21982;-60
2023/06/21 08:34:39;;;;;;;13.40;7.00;;;;;;;36.77;48.55;100474.30;108369;1281;21996;-61
2023/06/21 08:37:05;;;;;;;9.70;6.70;;;;;;;36.85;48.71;100474.45;108478;1274;21996;-68
2023/06/21 08:39:32;;;;;;;10.70;7.40;;;;;;;36.91;48.55;100474.95;108484;1271;21979;-66
2023/06/21 08:41:57;;;;;;;12.00;8.40;;;;;;;37.05;47.88;100474.95;108447;1272;21982;-60
2023/06/21 08:44:23;;;;;;;8.10;6.40;;;;;;;37.08;47.25;100476.06;108505;1280;21985;-68
2023/06/21 08:46:52;;;;;;;8.50;6.30;;;;;;;37.10;46.89;100473.91;108495;1270;21979;-74
2023/06/21 08:49:18;;;;;;;10.60;5.90;;;;;;;37.21;46.61;100474.29;109607;1282;21994;-83
2023/06/21 08:51:48;;;;;;;8.70;6.10;;;;;;;37.43;46.42;100475.13;108280;1281;22017;-72
2023/06/21 08:54:14;;;;;;;9.00;6.40;;;;;;;37.49;45.95;100479.38;108336;1270;22037;-73
2023/06/21 08:56:51;;;;;;;9.20;6.80;;;;;;;37.68;46.30;100475.85;108306;1276;23522;-68
2023/06/21 08:59:33;;;;;;;7.70;6.40;;;;;;;38.08;45.42;100477.94;108369;1281;23093;-76
2023/06/21 09:02:14;;;;;;;7.10;6.30;;;;;;;38.43;45.05;100478.86;108412;1281;23726;-72
2023/06/21 09:04:44;;;;;;;7.50;6.10;;;;;;;38.80;44.64;100482.15;108462;1274;21984;-60
2023/06/21 09:07:11;;;;;;;10.40;5.90;;;;;;;39.16;43.81;100481.27;108416;1276;24183;-75
2023/06/21 09:09:36;;;;;;;9.70;6.00;;;;;;;39.50;43.71;100484.12;108478;1276;23141;-78
2023/06/21 09:12:04;;;;;;;7.50;6.80;;;;;;;39.69;42.90;100484.98;108464;1281;23750;-77
2023/06/21 09:14:31;;;;;;;7.10;5.90;;;;;;;39.65;42.86;100487.30;108526;1282;22990;-61
2023/06/21 09:17:00;;;;;;;7.80;6.50;;;;;;;39.76;42.28;100488.13;108496;1270;23754;-61
2023/06/21 09:19:26;;;;;;;8.10;6.30;;;;;;;39.79;41.37;100484.08;110335;1281;21922;-59
2023/06/21 09:21:53;;;;;;;7.60;6.30;;;;;;;39.68;40.56;100485.27;110454;1281;21908;-75
2023/06/21 09:24:20;;;;;;;7.20;6.40;;;;;;;39.61;41.11;100489.69;110245;1279;22325;-60
2023/06/21 09:26:45;;;;;;;8.60;5.80;;;;;;;39.61;41.34;100484.95;108874;1281;21991;-60
2023/06/21 09:29:11;;;;;;;7.90;6.30;;;;;;;39.65;40.83;100487.59;108374;1280;21985;-74
2023/06/21 09:31:37;;;;;;;8.30;6.10;;;;;;;39.52;40.13;100485.31;108371;1281;22039;-74
2023/06/21 09:34:03;;;;;;;11.80;9.50;;;;;;;39.19;39.61;100483.50;108393;1273;21981;-76
2023/06/21 09:36:28;;;;;;;10.60;8.00;;;;;;;38.79;37.82;100485.48;108497;1281;21982;-61
2023/06/21 09:39:14;;;;;;;10.40;8.70;;;;;;;38.37;38.77;100477.41;108412;1270;23799;-61
2023/06/21 09:41:41;;;;;;;9.70;8.80;;;;;;;38.22;39.86;100476.36;108620;1277;21980;-72
2023/06/21 09:44:07;;;;;;;10.00;7.80;;;;;;;38.44;40.24;100476.08;108363;1272;23300;-61
2023/06/21 09:46:32;;;;;;;9.20;7.40;;;;;;;38.77;39.30;100472.69;108278;1281;21987;-61
2023/06/21 09:49:16;;;;;;;13.70;9.10;;;;;;;39.14;39.63;100471.50;108369;1282;21980;-73
2023/06/21 09:51:43;;;;;;;10.90;8.60;;;;;;;39.58;38.90;100464.02;108389;1274;22017;-73
2023/06/21 09:54:09;;;;;;;11.50;8.60;;;;;;;39.93;39.22;100462.98;108441;1278;21990;-63
2023/06/21 09:56:35;;;;;;;9.60;7.30;;;;;;;40.25;39.23;100458.23;108420;1282;21980;-63
2023/06/21 09:59:01;;;;;;;9.20;7.20;;;;;;;40.70;39.09;100459.70;108372;1282;21991;-71
2023/06/21 10:01:38;;;;;;;19.40;13.80;;;;;;;41.12;38.71;100458.70;108430;1276;22032;-73
2023/06/21 10:04:08;;;;;;;11.00;7.70;;;;;;;41.46;37.78;100459.60;108353;1276;23627;-60
2023/06/21 10:06:34;;;;;;;8.60;7.60;;;;;;;41.62;35.43;100457.86;108404;1282;21980;-71
2023/06/21 10:09:00;;;;;;;8.70;7.60;;;;;;;41.65;36.35;100459.29;108359;1281;22243;-71
2023/06/21 10:11:26;;;;;;;8.10;6.40;;;;;;;41.77;35.82;100461.27;108413;1281;21988;-60
2023/06/21 10:13:53;;;;;;;7.50;6.50;;;;;;;41.81;35.62;100462.13;108381;1281;21985;-64
2023/06/21 10:16:20;;;;;;;21.60;7.00;;;;;;;41.75;34.66;100459.88;108432;1282;21981;-72
2023/06/21 10:18:47;;;;;;;12.20;6.30;;;;;;;41.54;34.33;100463.84;108265;1280;21981;-73
2023/06/21 10:21:12;;;;;;;6.50;5.90;;;;;;;41.17;34.11;100461.74;108450;1281;21993;-72
2023/06/21 10:23:38;;;;;;;6.90;5.60;;;;;;;40.70;34.20;100461.08;108313;1274;21991;-71
2023/06/21 10:26:12;;;;;;;6.50;5.80;;;;;;;40.40;34.46;100452.04;108310;1280;21990;-72
2023/06/21 10:28:39;;;;;;;6.20;5.60;;;;;;;40.36;34.61;100454.77;108301;1281;23058;-63
2023/06/21 10:31:09;;;;;;;7.00;5.50;;;;;;;40.40;34.92;100453.98;108410;1276;21983;-63
2023/06/21 10:33:35;;;;;;;7.40;5.60;;;;;;;40.37;34.70;100453.86;108379;1281;21985;-73
2023/06/21 10:36:02;;;;;;;7.80;6.00;;;;;;;40.21;34.86;100453.27;108386;1276;21994;-72
2023/06/21 10:38:44;;;;;;;6.80;6.00;;;;;;;40.09;34.95;100451.24;108423;1276;21980;-63
2023/06/21 10:41:11;;;;;;;10.20;6.60;;;;;;;40.02;34.43;100449.16;108461;1276;22000;-63
2023/06/21 10:43:37;;;;;;;6.10;5.40;;;;;;;39.84;33.80;100453.73;108406;1281;21981;-63
2023/06/21 10:46:05;;;;;;;6.60;6.00;;;;;;;39.55;33.88;100458.24;108154;1277;22087;-73
2023/06/21 10:48:32;;;;;;;6.80;6.10;;;;;;;39.13;33.87;100460.31;108387;1282;22008;-74
2023/06/21 10:51:01;;;;;;;6.70;5.80;;;;;;;38.63;33.75;100458.61;108346;1278;21993;-61
2023/06/21 10:53:35;;;;;;;8.90;6.10;;;;;;;38.14;33.78;100449.41;108354;1273;22054;-73
2023/06/21 10:56:01;;;;;;;7.30;5.90;;;;;;;37.83;34.81;100443.17;108408;1277;22020;-61
2023/06/21 10:58:28;;;;;;;6.50;5.90;;;;;;;37.94;35.29;100442.81;108411;1276;21980;-75
2023/06/21 11:00:54;;;;;;;6.90;5.70;;;;;;;38.29;35.57;100441.33;108397;1280;23612;-74
2023/06/21 11:03:25;;;;;;;6.60;5.90;;;;;;;38.66;34.74;100441.58;108437;1277;21998;-73
2023/06/21 11:05:53;;;;;;;7.20;5.60;;;;;;;38.88;34.36;100436.84;108265;1282;21993;-63
2023/06/21 11:08:30;;;;;;;6.70;6.00;;;;;;;39.22;34.41;100433.09;108413;1277;21990;-73
2023/06/21 11:10:57;;;;;;;6.90;6.00;;;;;;;39.66;33.84;100434.93;108326;1282;21990;-64
2023/06/21 11:13:37;;;;;;;5.30;4.80;;;;;;;39.82;33.48;100436.96;108253;1281;22020;-73
2023/06/21 11:16:13;;;;;;;6.80;5.30;;;;;;;39.74;33.56;100436.01;108321;1282;23621;-74
2023/06/21 11:18:48;;;;;;;6.70;5.40;;;;;;;39.54;33.47;100434.14;108477;1281;22075;-63
2023/06/21 11:21:14;;;;;;;6.60;5.60;;;;;;;39.22;33.46;100437.69;108454;1281;21988;-75
2023/06/21 11:23:48;;;;;;;6.30;5.60;;;;;;;38.83;33.57;100439.90;108340;1282;21992;-72
2023/06/21 11:26:14;;;;;;;7.60;6.00;;;;;;;38.53;34.02;100438.96;108353;1282;21992;-62
2023/06/21 11:28:46;;;;;;;7.80;5.80;;;;;;;38.47;34.49;100438.38;108348;1277;21988;-63
2023/06/21 11:31:13;;;;;;;6.30;5.70;;;;;;;38.54;34.64;100435.63;108358;1277;23167;-68
2023/06/21 11:33:50;;;;;;;8.20;5.90;;;;;;;38.78;34.60;100426.04;108403;1282;21985;-61
2023/06/21 11:36:18;;;;;;;6.70;5.70;;;;;;;39.05;34.15;100420.79;108438;1276;21986;-60
2023/06/21 11:38:50;;;;;;;5.50;5.00;;;;;;;39.40;34.26;100420.73;108408;1270;23763;-70
2023/06/21 11:41:40;;;;;;;5.00;4.50;;;;;;;39.79;33.78;100425.20;108423;1279;22633;-70
2023/06/21 11:44:27;;;;;;;6.70;5.50;;;;;;;40.15;33.42;100431.06;108420;1281;21977;-70
2023/06/21 11:47:16;;;;;;;10.70;6.70;;;;;;;40.40;32.80;100424.77;108392;1281;21977;-70
2023/06/21 11:49:47;;;;;;;9.60;8.00;;;;;;;40.69;32.47;100421.65;109138;1282;21985;-69
2023/06/21 11:52:12;;;;;;;9.60;7.20;;;;;;;40.81;31.64;100420.75;109546;1281;21989;-72
2023/06/21 11:54:38;;;;;;;12.30;10.30;;;;;;;40.70;32.05;100422.45;108373;1282;21982;-64
2023/06/21 11:57:07;;;;;;;9.80;8.40;;;;;;;40.71;32.32;100424.23;108986;1282;21991;-63
2023/06/21 11:59:34;;;;;;;15.50;8.70;;;;;;;40.78;32.17;100422.09;108535;1271;22079;-70
2023/06/21 12:02:16;;;;;;;12.50;7.40;;;;;;;40.81;32.02;100422.58;108474;1282;22002;-71
2023/06/21 12:04:43;;;;;;;9.20;7.00;;;;;;;41.06;32.02;100418.56;108361;1278;21981;-62
2023/06/21 12:07:09;;;;;;;8.10;5.80;;;;;;;41.39;32.12;100423.52;108441;1277;22027;-70
2023/06/21 12:09:37;;;;;;;8.20;6.50;;;;;;;41.67;31.91;100422.29;108423;1276;21982;-62
2023/06/21 12:12:05;;;;;;;7.40;6.40;;;;;;;41.81;31.79;100424.13;108443;1270;21985;-71
2023/06/21 12:14:31;;;;;;;7.70;6.30;;;;;;;41.93;31.80;100426.46;108438;1282;21980;-70
2023/06/21 12:16:58;;;;;;;12.10;7.80;;;;;;;41.96;31.26;100428.52;108336;1281;21992;-62
2023/06/21 12:19:24;;;;;;;6.80;5.70;;;;;;;42.00;31.63;100424.25;108414;1282;22023;-62
2023/06/21 12:21:49;;;;;;;8.40;7.10;;;;;;;42.11;31.23;100422.45;108384;1281;21988;-60
2023/06/21 12:24:25;;;;;;;9.50;5.30;;;;;;;42.17;31.05;100419.23;108408;1274;23691;-70
2023/06/21 12:26:53;;;;;;;6.70;5.40;;;;;;;42.34;31.20;100417.55;108386;1280;23145;-70
2023/06/21 12:29:20;;;;;;;6.50;5.40;;;;;;;42.57;31.11;100422.75;108276;1274;21962;-61
2023/06/21 12:31:46;;;;;;;10.00;6.00;;;;;;;42.60;30.73;100423.22;108386;1270;21992;-61
2023/06/21 12:34:15;;;;;;;6.40;5.00;;;;;;;42.50;30.56;100422.08;108146;1276;22101;-61
2023/06/21 12:36:43;;;;;;;;;;;;;;;42.21;30.38;100426.04;108460;1282;21970;-61
2023/06/21 12:39:09;;;;;;;6.00;5.00;;;;;;;41.82;30.58;100426.46;108384;1277;21981;-62
2023/06/21 12:41:35;;;;;;;6.00;4.90;;;;;;;41.55;30.72;100429.59;108381;1282;23711;-61
2023/06/21 12:44:01;;;;;;;6.40;5.30;;;;;;;41.45;30.80;100430.96;108364;1282;22037;-61
2023/06/21 12:46:28;;;;;;;6.80;4.90;;;;;;;41.51;30.56;100434.33;108488;1277;22000;-62
2023/06/21 12:48:58;;;;;;;6.20;4.90;;;;;;;41.62;30.71;100435.39;108456;1281;21980;-69
2023/06/21 12:51:29;;;;;;;179.40;19.80;;;;;;;41.72;30.41;100434.88;108507;1277;21997;-61
2023/06/21 12:54:00;;;;;;;27.30;6.50;;;;;;;41.64;30.39;100440.96;108618;1281;21988;-63
2023/06/21 12:56:29;;;;;;;7.90;5.20;;;;;;;41.39;30.33;100443.16;108525;1271;21979;-65
2023/06/21 12:58:56;;;;;;;11.40;5.90;;;;;;;41.07;30.19;100441.58;108437;1281;21984;-68
2023/06/21 13:01:21;;;;;;;8.60;5.40;;;;;;;40.87;30.39;100443.82;108462;1282;22037;-68
2023/06/21 13:03:47;;;;;;;17.00;5.90;;;;;;;40.84;30.09;100444.77;108425;1274;21988;-61
2023/06/21 13:06:13;;;;;;;51.80;9.60;;;;;;;40.81;30.21;100442.86;108349;1281;21982;-61
2023/06/21 13:08:38;;;;;;;24.00;7.30;;;;;;;40.74;30.30;100445.15;108359;1273;21979;-70
2023/06/21 13:11:08;;;;;;;11.00;6.60;;;;;;;40.67;30.22;100439.30;108361;1277;21985;-71
2023/06/21 13:13:34;;;;;;;13.00;5.10;;;;;;;40.68;30.26;100441.68;108401;1282;21997;-61
2023/06/21 13:15:59;;;;;;;8.10;5.40;;;;;;;40.70;30.26;100441.04;108381;1273;21978;-61
2023/06/21 13:18:27;;;;;;;11.50;5.30;;;;;;;40.70;29.84;100440.65;108406;1281;21994;-63
2023/06/21 13:20:57;;;;;;;8.50;4.90;;;;;;;40.58;29.99;100437.95;108437;1282;23061;-70
2023/06/21 13:23:27;;;;;;;7.10;4.70;;;;;;;40.48;29.98;100441.27;108477;1281;21982;-61
2023/06/21 13:25:53;;;;;;;8.00;4.70;;;;;;;40.33;29.95;100447.89;108461;1276;22445;-72
2023/06/21 13:28:19;;;;;;;7.50;5.00;;;;;;;40.22;30.09;100450.84;108491;1280;23829;-71
2023/06/21 13:30:44;;;;;;;6.10;4.60;;;;;;;40.21;30.03;100449.66;108435;1270;21992;-61
2023/06/21 13:33:10;;;;;;;7.50;4.60;;;;;;;40.24;30.15;100446.71;108413;1277;22031;-70
2023/06/21 13:35:36;;;;;;;5.80;4.40;;;;;;;40.37;30.31;100443.98;108393;1282;23662;-61
2023/06/21 13:38:03;;;;;;;5.50;4.60;;;;;;;40.53;30.06;100448.86;108372;1276;21985;-71
2023/06/21 13:40:28;;;;;;;8.30;5.00;;;;;;;40.52;29.95;100448.48;108466;1276;21991;-70
2023/06/21 13:42:54;;;;;;;6.20;4.60;;;;;;;40.44;29.78;100452.11;108386;1282;21990;-61
2023/06/21 13:45:20;;;;;;;5.90;4.70;;;;;;;40.41;29.90;100451.86;108407;1277;21988;-61
2023/06/21 13:47:45;;;;;;;6.70;4.50;;;;;;;40.50;30.04;100449.08;108342;1277;21997;-61
2023/06/21 13:50:11;;;;;;;5.80;4.30;;;;;;;40.67;29.79;100446.16;108309;1281;21983;-67
2023/06/21 13:52:37;;;;;;;7.40;4.40;;;;;;;40.88;29.59;100446.45;108369;1276;21993;-70
2023/06/21 13:55:03;;;;;;;11.60;7.90;;;;;;;41.07;29.47;100447.52;108402;1277;21997;-68
2023/06/21 13:57:29;;;;;;;18.00;10.90;;;;;;;41.19;29.29;100449.21;108350;1282;21994;-63